createdAt,value
2022-08-02T00:00:55.655Z,8.63
2022-08-02T00:03:23.746Z,10.27
2022-08-02T00:05:53.175Z,9.13
2022-08-02T00:08:21.648Z,9.77
2022-08-02T00:10:49.188Z,9.90
2022-08-02T00:13:16.121Z,10.00
2022-08-02T00:15:43.031Z,10.80
2022-08-02T00:18:09.930Z,10.77
2022-08-02T00:20:36.924Z,10.37
2022-08-02T00:23:03.993Z,10.10
2022-08-02T00:25:31.038Z,10.03
2022-08-02T00:27:58.033Z,10.60
2022-08-02T00:30:25.366Z,10.90
2022-08-02T00:32:52.489Z,10.30
2022-08-02T00:35:19.711Z,10.77
2022-08-02T00:37:46.699Z,11.17
2022-08-02T00:40:13.993Z,11.40
2022-08-02T00:42:41.026Z,10.40
2022-08-02T00:45:08.843Z,10.87
2022-08-02T00:47:35.925Z,12.40
2022-08-02T00:50:02.959Z,11.50
2022-08-02T00:52:29.864Z,12.70
2022-08-02T00:54:56.869Z,13.00
2022-08-02T00:57:23.867Z,13.83
2022-08-02T00:59:50.829Z,12.80
2022-08-02T01:02:18.037Z,13.23
2022-08-02T01:04:45.241Z,13.10
2022-08-02T01:07:13.921Z,12.77
2022-08-02T01:09:42.761Z,12.60
2022-08-02T01:12:11.516Z,13.20
2022-08-02T01:14:41.716Z,13.13
2022-08-02T01:17:35.010Z,14.03
2022-08-02T01:20:42.962Z,13.40
2022-08-02T01:24:07.917Z,13.77
2022-08-02T01:26:51.060Z,14.17
2022-08-02T01:29:31.887Z,14.37
2022-08-02T01:32:12.450Z,13.87
2022-08-02T01:34:47.121Z,13.23
2022-08-02T01:37:35.298Z,14.97
2022-08-02T01:40:11.022Z,13.23
2022-08-02T01:42:41.087Z,13.57
2022-08-02T01:45:09.500Z,14.27
2022-08-02T01:47:41.321Z,13.90
2022-08-02T01:50:11.110Z,13.77
2022-08-02T01:52:42.279Z,13.33
2022-08-02T01:55:33.671Z,15.00
2022-08-02T01:58:14.993Z,13.63
2022-08-02T02:00:43.465Z,13.60
2022-08-02T02:03:20.609Z,12.93
2022-08-02T02:05:50.002Z,14.90
2022-08-02T02:08:27.243Z,14.70
2022-08-02T02:10:56.728Z,14.13
2022-08-02T02:13:33.376Z,14.07
2022-08-02T02:16:04.191Z,13.50
2022-08-02T02:18:33.004Z,14.73
2022-08-02T02:21:00.072Z,14.60
2022-08-02T02:23:34.068Z,14.27
2022-08-02T02:26:05.525Z,15.07
2022-08-02T02:28:37.331Z,15.20
2022-08-02T02:31:07.884Z,14.90
2022-08-02T02:33:39.930Z,12.93
2022-08-02T02:36:09.833Z,14.10
2022-08-02T02:38:37.178Z,14.63
2022-08-02T02:41:06.891Z,15.60
2022-08-02T02:43:35.589Z,15.03
2022-08-02T02:46:04.858Z,14.17
2022-08-02T02:48:32.560Z,14.50
2022-08-02T02:51:01.060Z,17.07
2022-08-02T02:53:29.797Z,15.50
2022-08-02T02:56:20.871Z,16.00
2022-08-02T02:58:48.639Z,16.87
2022-08-02T03:01:53.117Z,16.83
2022-08-02T03:04:16.056Z,16.20
2022-08-02T03:06:43.122Z,17.80
2022-08-02T03:09:11.525Z,17.43
2022-08-02T03:11:40.370Z,17.63
2022-08-02T03:14:10.186Z,18.27
2022-08-02T03:16:48.057Z,18.17
2022-08-02T03:19:16.002Z,15.40
2022-08-02T03:21:43.892Z,19.27
2022-08-02T03:24:11.148Z,18.70
2022-08-02T03:26:38.681Z,18.17
2022-08-02T03:29:10.174Z,19.17
2022-08-02T03:31:41.042Z,18.87
2022-08-02T03:34:08.571Z,20.43
2022-08-02T03:36:36.506Z,19.40
2022-08-02T03:39:05.294Z,21.40
2022-08-02T03:41:34.589Z,19.87
2022-08-02T03:44:02.884Z,19.30
2022-08-02T03:46:30.948Z,17.83
2022-08-02T03:48:58.735Z,20.37
2022-08-02T03:51:26.467Z,21.37
2022-08-02T03:53:53.954Z,18.77
2022-08-02T03:56:23.429Z,20.40
2022-08-02T03:58:50.763Z,20.53
2022-08-02T04:01:17.694Z,20.77
2022-08-02T04:03:44.671Z,20.80
2022-08-02T04:06:11.623Z,19.27
2022-08-02T04:08:39.124Z,19.60
2022-08-02T04:11:25.567Z,20.10
2022-08-02T04:13:56.719Z,17.80
2022-08-02T04:16:39.753Z,19.60
2022-08-02T04:19:09.768Z,19.37
2022-08-02T04:21:49.870Z,20.40
2022-08-02T04:24:26.859Z,23.20
2022-08-02T04:27:19.275Z,24.27
2022-08-02T04:29:47.893Z,26.30
2022-08-02T04:32:15.929Z,26.67
2022-08-02T04:35:11.291Z,25.90
2022-08-02T04:37:35.050Z,22.77
2022-08-02T04:40:03.001Z,21.87
2022-08-02T04:42:29.960Z,23.10
2022-08-02T04:44:58.052Z,25.80
2022-08-02T04:48:02.451Z,26.53
2022-08-02T04:50:11.826Z,27.40
2022-08-02T04:52:42.778Z,27.80
2022-08-02T04:55:12.511Z,25.30
2022-08-02T04:57:58.105Z,21.47
2022-08-02T05:00:27.509Z,17.27
2022-08-02T05:02:56.085Z,14.37
2022-08-02T05:05:23.239Z,13.83
2022-08-02T05:07:50.211Z,13.03
2022-08-02T05:10:17.211Z,10.90
2022-08-02T05:12:46.118Z,10.87
2022-08-02T05:15:16.631Z,10.17
2022-08-02T05:17:47.490Z,9.23
2022-08-02T05:20:16.373Z,9.13
2022-08-02T05:22:43.606Z,9.57
2022-08-02T05:25:10.986Z,8.30
2022-08-02T05:27:37.970Z,8.27
2022-08-02T05:30:08.806Z,10.23
2022-08-02T05:32:42.810Z,7.53
2022-08-02T05:35:09.799Z,7.90
2022-08-02T05:37:36.923Z,7.00
2022-08-02T05:40:05.150Z,7.83
2022-08-02T05:42:40.739Z,7.43
2022-08-02T05:45:08.646Z,7.23
2022-08-02T05:47:35.818Z,6.87
2022-08-02T05:50:03.496Z,6.70
2022-08-02T05:53:16.262Z,7.17
2022-08-02T05:56:24.107Z,6.27
2022-08-02T05:59:12.614Z,5.87
2022-08-02T06:01:42.914Z,5.20
2022-08-02T06:04:15.466Z,6.27
2022-08-02T06:06:44.676Z,5.70
2022-08-02T06:09:16.292Z,6.80
2022-08-02T06:12:01.802Z,5.93
2022-08-02T06:14:31.075Z,5.20
2022-08-02T06:16:58.390Z,6.40
2022-08-02T06:19:26.977Z,5.70
2022-08-02T06:22:32.244Z,6.53
2022-08-02T06:24:46.196Z,5.60
2022-08-02T06:27:14.659Z,5.53
2022-08-02T06:29:43.357Z,5.20
2022-08-02T06:32:11.540Z,5.00
2022-08-02T06:34:40.034Z,5.90
2022-08-02T06:37:39.151Z,4.67
2022-08-02T06:40:32.502Z,4.80
2022-08-02T06:43:23.726Z,4.30
2022-08-02T06:45:50.764Z,5.53
2022-08-02T06:48:18.021Z,4.53
2022-08-02T06:50:44.989Z,4.33
2022-08-02T06:53:12.282Z,4.57
2022-08-02T06:55:43.627Z,4.70
2022-08-02T06:58:11.981Z,4.83
2022-08-02T07:00:39.183Z,4.73
2022-08-02T07:03:06.541Z,5.00
2022-08-02T07:05:33.546Z,4.40
2022-08-02T07:08:01.535Z,4.37
2022-08-02T07:10:28.864Z,4.10
2022-08-02T07:12:59.625Z,4.63
2022-08-02T07:15:27.227Z,3.73
2022-08-02T07:17:54.243Z,4.00
2022-08-02T07:20:21.172Z,4.20
2022-08-02T07:22:48.246Z,4.10
2022-08-02T07:25:15.236Z,3.73
2022-08-02T07:27:42.221Z,3.47
2022-08-02T07:30:12.438Z,3.60
2022-08-02T07:32:40.199Z,3.30
2022-08-02T07:35:09.343Z,4.20
2022-08-02T07:37:54.766Z,4.00
2022-08-02T07:40:24.326Z,4.30
2022-08-02T07:42:57.831Z,4.60
2022-08-02T07:45:27.538Z,3.63
2022-08-02T07:47:55.057Z,4.43
2022-08-02T07:50:22.723Z,4.13
2022-08-02T07:52:50.190Z,7.90
2022-08-02T07:55:24.443Z,6.22
2022-08-02T07:58:06.260Z,3.28
2022-08-02T08:00:38.374Z,2.15
2022-08-02T08:03:05.408Z,3.28
2022-08-02T08:05:32.310Z,2.47
2022-08-02T08:07:59.284Z,6.57
2022-08-02T08:10:26.361Z,2.10
2022-08-02T08:12:55.353Z,1.98
2022-08-02T08:15:22.370Z,1.88
2022-08-02T08:17:49.379Z,1.70
2022-08-02T08:20:16.226Z,1.48
2022-08-02T08:22:43.269Z,1.52
2022-08-02T08:25:10.353Z,1.60
2022-08-02T08:27:37.285Z,1.20
2022-08-02T08:30:04.800Z,1.88
2022-08-02T08:32:32.067Z,1.95
2022-08-02T08:35:03.722Z,1.65
2022-08-02T08:37:36.903Z,1.63
2022-08-02T08:40:06.184Z,1.90
2022-08-02T08:42:33.933Z,1.77
2022-08-02T08:45:01.196Z,1.50
2022-08-02T08:47:40.965Z,1.58
2022-08-02T08:50:17.831Z,1.35
2022-08-02T08:53:02.991Z,1.38
2022-08-02T08:55:30.462Z,0.90
2022-08-02T08:58:00.068Z,1.02
2022-08-02T09:00:27.596Z,0.90
2022-08-02T09:02:54.662Z,0.80
2022-08-02T09:05:21.949Z,0.82
2022-08-02T09:07:51.042Z,19.10
2022-08-02T09:10:41.061Z,5.13
2022-08-02T09:13:45.031Z,1.75
2022-08-02T09:16:14.409Z,0.70
2022-08-02T09:18:46.854Z,0.80
2022-08-02T09:21:16.431Z,0.60
2022-08-02T09:23:54.709Z,0.60
2022-08-02T09:26:24.677Z,0.57
2022-08-02T09:28:59.399Z,0.60
2022-08-02T09:31:26.703Z,0.70
2022-08-02T09:33:56.118Z,1.25
2022-08-02T09:36:23.793Z,0.55
2022-08-02T09:39:10.811Z,0.63
2022-08-02T09:41:43.585Z,0.57
2022-08-02T09:44:15.949Z,0.60
2022-08-02T09:46:46.780Z,0.70
2022-08-02T09:49:20.247Z,0.93
2022-08-02T09:51:52.104Z,1.10
2022-08-02T09:54:25.234Z,0.77
2022-08-02T09:56:54.966Z,1.20
2022-08-02T09:59:25.007Z,0.90
2022-08-02T10:02:01.605Z,1.25
2022-08-02T10:04:33.711Z,1.08
2022-08-02T10:07:04.435Z,0.93
2022-08-02T10:09:35.937Z,1.35
2022-08-02T10:12:06.200Z,1.27
2022-08-02T10:14:36.209Z,1.25
2022-08-02T10:17:05.177Z,1.10
2022-08-02T10:20:00.804Z,1.35
2022-08-02T10:22:20.891Z,0.95
2022-08-02T10:24:49.318Z,1.20
2022-08-02T10:27:21.295Z,1.42
2022-08-02T10:29:55.231Z,0.80
2022-08-02T10:32:31.514Z,1.33
2022-08-02T10:35:20.166Z,1.10
2022-08-02T10:38:01.201Z,1.67
2022-08-02T10:40:54.449Z,1.50
2022-08-02T10:43:59.933Z,1.30
2022-08-02T10:46:37.294Z,1.60
2022-08-02T10:52:09.021Z,1.00
2022-08-02T10:54:44.425Z,1.70
2022-08-02T10:57:23.435Z,1.20
2022-08-02T10:59:55.146Z,2.05
2022-08-02T11:02:40.281Z,1.10
2022-08-02T11:05:12.722Z,1.08
2022-08-02T11:07:47.593Z,1.05
2022-08-02T11:10:36.327Z,0.93
2022-08-02T11:13:15.174Z,1.73
2022-08-02T11:15:49.002Z,0.90
2022-08-02T11:18:16.298Z,1.10
2022-08-02T11:20:43.322Z,0.95
2022-08-02T11:23:44.697Z,1.02
2022-08-02T11:26:51.688Z,1.00
2022-08-02T11:29:18.882Z,0.90
2022-08-02T11:31:47.440Z,1.42
2022-08-02T11:34:36.813Z,1.17
2022-08-02T11:37:04.223Z,1.10
2022-08-02T11:39:31.795Z,1.10
2022-08-02T11:42:00.801Z,1.30
2022-08-02T11:44:29.715Z,0.90
2022-08-02T11:46:59.150Z,1.33
2022-08-02T11:49:26.810Z,1.23
2022-08-02T11:51:56.498Z,1.17
2022-08-02T11:54:53.750Z,0.82
2022-08-02T11:57:22.379Z,1.15
2022-08-02T11:59:52.710Z,1.10
2022-08-02T12:02:26.015Z,1.25
2022-08-02T12:04:59.759Z,0.98
2022-08-02T12:07:46.100Z,1.10
2022-08-02T12:10:19.147Z,1.60
2022-08-02T12:13:12.688Z,1.10
2022-08-02T12:15:45.483Z,1.20
2022-08-02T12:18:41.757Z,1.40
2022-08-02T12:21:28.872Z,0.90
2022-08-02T12:24:00.300Z,1.40
2022-08-02T12:26:28.625Z,1.27
2022-08-02T12:28:57.672Z,1.33
2022-08-02T12:31:56.257Z,1.00
2022-08-02T12:34:31.446Z,1.38
2022-08-02T12:37:07.691Z,1.15
2022-08-02T12:39:43.345Z,1.27
2022-08-02T12:42:14.100Z,1.15
2022-08-02T12:44:56.086Z,1.10
2022-08-02T12:47:23.090Z,1.20
2022-08-02T12:50:22.124Z,1.83
2022-08-02T12:52:50.836Z,1.80
2022-08-02T12:56:01.129Z,1.63
2022-08-02T12:58:14.541Z,1.65
2022-08-02T13:00:53.823Z,1.33
2022-08-02T13:04:10.419Z,1.65
2022-08-02T13:06:29.517Z,1.77
2022-08-02T13:08:57.268Z,1.30
2022-08-02T13:11:24.890Z,1.23
2022-08-02T13:14:02.330Z,1.95
2022-08-02T13:16:31.633Z,1.70
2022-08-02T13:18:59.420Z,1.73
2022-08-02T13:21:40.049Z,1.63
2022-08-02T13:24:23.290Z,7.35
2022-08-02T13:27:08.199Z,1.75
2022-08-02T13:29:37.472Z,1.63
2022-08-02T13:32:06.247Z,2.03
2022-08-02T13:34:33.515Z,1.77
2022-08-02T13:37:00.651Z,1.75
2022-08-02T13:39:27.711Z,1.80
2022-08-02T13:41:55.334Z,1.90
2022-08-02T13:44:22.582Z,1.77
2022-08-02T13:46:49.603Z,1.92
2022-08-02T13:49:19.846Z,1.67
2022-08-02T13:51:47.950Z,1.55
2022-08-02T13:54:15.823Z,1.95
2022-08-02T13:56:43.277Z,1.50
2022-08-02T13:59:22.003Z,1.17
2022-08-02T14:01:58.846Z,1.20
2022-08-02T14:04:26.710Z,1.20
2022-08-02T14:06:54.234Z,1.50
2022-08-02T14:09:23.363Z,1.48
2022-08-02T14:11:52.354Z,1.58
2022-08-02T14:14:19.363Z,2.47
2022-08-02T14:16:46.437Z,1.60
2022-08-02T14:19:17.347Z,1.65
2022-08-02T14:21:45.982Z,1.40
2022-08-02T14:24:15.424Z,1.40
2022-08-02T14:26:42.558Z,1.38
2022-08-02T14:29:09.916Z,1.40
2022-08-02T14:31:43.983Z,1.25
2022-08-02T14:34:14.736Z,1.30
2022-08-02T14:36:42.082Z,1.50
2022-08-02T14:39:09.371Z,1.38
2022-08-02T14:41:59.685Z,1.50
2022-08-02T14:44:24.699Z,1.03
2022-08-02T14:46:52.637Z,1.40
2022-08-02T14:49:25.087Z,1.10
2022-08-02T14:51:54.521Z,1.43
2022-08-02T14:54:27.873Z,1.40
2022-08-02T14:56:59.580Z,1.40
2022-08-02T14:59:29.662Z,1.30
2022-08-02T15:01:57.161Z,1.70
2022-08-02T15:04:24.281Z,1.30
2022-08-02T15:06:52.998Z,1.43
2022-08-02T15:09:22.147Z,1.43
2022-08-02T15:11:50.650Z,1.60
2022-08-02T15:14:22.004Z,1.23
2022-08-02T15:16:58.787Z,1.77
2022-08-02T15:19:28.069Z,1.70
2022-08-02T15:22:15.954Z,1.50
2022-08-02T15:24:45.071Z,1.47
2022-08-02T15:27:14.316Z,1.80
2022-08-02T15:29:42.369Z,1.50
2022-08-02T15:32:21.369Z,1.30
2022-08-02T15:34:48.458Z,1.30
2022-08-02T15:37:16.645Z,1.60
2022-08-02T15:43:09.205Z,1.60
2022-08-02T15:45:36.794Z,1.80
2022-08-02T15:48:05.219Z,1.87
2022-08-02T15:50:32.431Z,1.40
2022-08-02T15:52:59.417Z,1.70
2022-08-02T15:55:26.380Z,1.20
2022-08-02T15:58:02.118Z,1.50
2022-08-02T16:00:30.926Z,1.77
2022-08-02T16:02:57.974Z,1.50
2022-08-02T16:05:25.111Z,1.37
2022-08-02T16:07:58.269Z,1.03
2022-08-02T16:10:28.342Z,1.63
2022-08-02T16:16:28.260Z,1.53
2022-08-02T16:19:38.809Z,1.40
2022-08-02T16:22:01.272Z,1.57
2022-08-02T16:24:33.109Z,1.20
2022-08-02T16:27:00.198Z,1.80
2022-08-02T16:29:27.241Z,1.50
2022-08-02T16:32:01.073Z,1.63
2022-08-02T16:34:40.144Z,2.20
2022-08-02T16:37:17.454Z,1.70
2022-08-02T16:39:44.356Z,1.40
2022-08-02T16:42:11.355Z,1.60
2022-08-02T16:44:38.296Z,2.50
2022-08-02T16:47:05.410Z,1.43
2022-08-02T16:50:05.874Z,1.50
2022-08-02T16:52:20.007Z,1.50
2022-08-02T16:54:49.766Z,1.70
2022-08-02T16:57:20.391Z,1.83
2022-08-02T16:59:57.232Z,1.43
2022-08-02T17:02:25.910Z,1.70
2022-08-02T17:04:52.933Z,1.73
2022-08-02T17:08:06.189Z,1.73
2022-08-02T17:10:09.247Z,2.07
2022-08-02T17:12:37.398Z,1.40
2022-08-02T17:16:08.653Z,1.50
2022-08-02T17:17:57.457Z,1.60
2022-08-02T17:20:24.723Z,1.50
2022-08-02T17:22:52.110Z,1.33
2022-08-02T17:25:19.740Z,1.50
2022-08-02T17:27:47.120Z,1.63
2022-08-02T17:30:26.627Z,1.60
2022-08-02T17:32:54.582Z,1.40
2022-08-02T17:35:25.066Z,1.60
2022-08-02T17:37:54.809Z,1.70
2022-08-02T17:40:27.530Z,1.53
2022-08-02T17:42:54.550Z,1.33
2022-08-02T17:45:25.741Z,2.20
2022-08-02T17:48:04.898Z,1.60
2022-08-02T17:50:34.193Z,1.60
2022-08-02T17:53:02.203Z,1.67
2022-08-02T17:55:30.981Z,1.63
2022-08-02T17:57:59.433Z,1.97
2022-08-02T18:00:37.771Z,1.83
2022-08-02T18:03:10.016Z,1.70
2022-08-02T18:05:39.981Z,1.80
2022-08-02T18:08:21.620Z,2.60
2022-08-02T18:10:50.484Z,1.80
2022-08-02T18:13:17.625Z,1.53
2022-08-02T18:15:45.458Z,1.60
2022-08-02T18:18:14.379Z,1.40
2022-08-02T18:20:42.117Z,1.53
2022-08-02T18:23:13.497Z,1.90
2022-08-02T18:25:45.661Z,1.73
2022-08-02T18:28:15.446Z,1.43
2022-08-02T18:30:43.751Z,1.40
2022-08-02T18:33:55.766Z,1.67
2022-08-02T18:35:58.509Z,1.50
2022-08-02T18:38:27.832Z,1.50
2022-08-02T18:40:55.250Z,1.10
2022-08-02T18:43:25.534Z,1.10
2022-08-02T18:46:05.111Z,1.50
2022-08-02T18:48:35.697Z,1.53
2022-08-02T18:51:03.012Z,1.33
2022-08-02T18:53:41.698Z,1.60
2022-08-02T18:56:19.139Z,1.60
2022-08-02T18:58:48.542Z,1.43
2022-08-02T19:01:21.742Z,1.40
2022-08-02T19:04:00.385Z,1.80
2022-08-02T19:06:30.821Z,1.60
2022-08-02T19:08:59.744Z,1.33
2022-08-02T19:11:40.898Z,1.60
2022-08-02T19:14:08.717Z,1.57
2022-08-02T19:16:37.772Z,1.70
2022-08-02T19:19:06.310Z,2.47
2022-08-02T19:22:16.745Z,1.77
2022-08-02T19:24:21.120Z,1.90
2022-08-02T19:26:51.880Z,1.73
2022-08-02T19:29:42.197Z,1.50
2022-08-02T19:32:41.888Z,1.83
2022-08-02T19:35:00.338Z,1.33
2022-08-02T19:37:37.113Z,1.63
2022-08-02T19:40:07.989Z,1.60
2022-08-02T19:43:00.021Z,2.27
2022-08-02T19:45:49.083Z,1.60
2022-08-02T19:48:13.752Z,1.67
2022-08-02T19:50:44.285Z,1.60
2022-08-02T19:53:17.368Z,1.67
2022-08-02T19:55:58.600Z,1.90
2022-08-02T19:58:29.192Z,1.60
2022-08-02T20:00:57.839Z,2.50
2022-08-02T20:03:50.874Z,2.57
2022-08-02T20:06:13.701Z,2.40
2022-08-02T20:08:53.313Z,2.00
2022-08-02T20:11:24.693Z,3.07
2022-08-02T20:13:52.777Z,3.00
2022-08-02T20:16:27.801Z,2.80
2022-08-02T20:18:56.347Z,3.10
2022-08-02T20:21:34.295Z,2.60
2022-08-02T20:24:07.523Z,2.53
2022-08-02T20:26:35.476Z,2.77
2022-08-02T20:29:04.068Z,3.13
2022-08-02T20:31:31.509Z,3.70
2022-08-02T20:33:59.084Z,2.80
2022-08-02T20:36:27.223Z,3.60
2022-08-02T20:38:54.811Z,2.50
2022-08-02T20:41:23.477Z,2.40
2022-08-02T20:44:04.484Z,3.03
2022-08-02T20:46:43.176Z,3.00
2022-08-02T20:49:18.909Z,2.93
2022-08-02T20:51:52.285Z,3.07
2022-08-02T20:54:21.511Z,2.77
2022-08-02T20:56:50.555Z,3.13
2022-08-02T20:59:18.081Z,3.00
2022-08-02T21:01:57.045Z,3.07
2022-08-02T21:04:24.881Z,3.57
2022-08-02T21:06:52.198Z,3.37
2022-08-02T21:09:19.184Z,3.37
2022-08-02T21:12:00.071Z,3.13
2022-08-02T21:14:27.048Z,3.10
2022-08-02T21:16:54.302Z,3.53
2022-08-02T21:19:21.644Z,3.93
2022-08-02T21:21:48.623Z,3.97
2022-08-02T21:24:16.283Z,3.70
2022-08-02T21:26:47.268Z,3.20
2022-08-02T21:29:15.878Z,3.13
2022-08-02T21:31:43.437Z,4.30
2022-08-02T21:34:21.788Z,3.90
2022-08-02T21:36:54.418Z,3.83
2022-08-02T21:39:21.744Z,3.50
2022-08-02T21:41:49.329Z,3.50
2022-08-02T21:44:17.213Z,4.40
2022-08-02T21:46:49.964Z,4.80
2022-08-02T21:49:19.967Z,4.07
2022-08-02T21:51:49.652Z,3.80
2022-08-02T21:54:34.263Z,4.43
2022-08-02T21:57:01.780Z,3.40
2022-08-02T21:59:31.064Z,4.37
2022-08-02T22:01:59.885Z,3.63
2022-08-02T22:04:26.950Z,4.00
2022-08-02T22:06:55.641Z,3.47
2022-08-02T22:09:43.313Z,3.43
2022-08-02T22:12:16.965Z,3.63
2022-08-02T22:14:49.692Z,3.90
2022-08-02T22:17:46.815Z,3.90
2022-08-02T22:20:12.225Z,3.30
2022-08-02T22:22:39.690Z,4.10
2022-08-02T22:25:21.299Z,4.13
2022-08-02T22:28:15.850Z,4.30
2022-08-02T22:30:42.832Z,4.67
2022-08-02T22:33:33.023Z,4.87
2022-08-02T22:36:02.138Z,4.70
2022-08-02T22:38:29.230Z,4.80
2022-08-02T22:40:56.347Z,4.40
2022-08-02T22:43:23.634Z,4.17
2022-08-02T22:45:51.209Z,5.07
2022-08-02T22:48:18.530Z,4.50
2022-08-02T22:50:47.446Z,4.23
2022-08-02T22:53:14.318Z,4.70
2022-08-02T22:55:51.864Z,4.90
2022-08-02T22:58:19.602Z,4.50
2022-08-02T23:00:50.296Z,4.40
2022-08-02T23:03:17.327Z,4.70
2022-08-02T23:05:44.404Z,4.80
2022-08-02T23:08:11.377Z,4.07
2022-08-02T23:10:38.262Z,4.10
2022-08-02T23:13:05.216Z,4.10
2022-08-02T23:15:52.036Z,3.67
2022-08-02T23:18:37.432Z,3.30
2022-08-02T23:21:04.595Z,4.00
2022-08-02T23:23:31.610Z,4.70
2022-08-02T23:25:58.742Z,3.50
2022-08-02T23:28:25.712Z,3.60
2022-08-02T23:30:52.861Z,3.27
2022-08-02T23:33:19.909Z,3.80
2022-08-02T23:35:46.848Z,3.73
2022-08-02T23:38:13.782Z,4.17
2022-08-02T23:40:41.323Z,3.73
2022-08-02T23:43:13.409Z,4.00
2022-08-02T23:45:46.032Z,4.40
2022-08-02T23:48:13.373Z,4.60
2022-08-02T23:50:40.327Z,4.50
2022-08-02T23:53:07.245Z,4.37
2022-08-02T23:55:34.568Z,3.70
2022-08-02T23:58:01.484Z,4.40
